createdAt,value
2022-08-18T00:00:02.905Z,21.27
2022-08-18T00:01:09.743Z,22.80
2022-08-18T00:02:16.834Z,15.32
2022-08-18T00:03:56.673Z,17.63
2022-08-18T00:05:00.807Z,15.90
2022-08-18T00:06:07.151Z,14.45
2022-08-18T00:07:15.255Z,13.93
2022-08-18T00:08:20.746Z,14.85
2022-08-18T00:09:28.991Z,16.92
2022-08-18T00:10:36.338Z,20.92
2022-08-18T00:11:44.667Z,19.90
2022-08-18T00:12:48.591Z,23.17
2022-08-18T00:13:54.305Z,20.30
2022-08-18T00:15:02.538Z,20.65
2022-08-18T00:16:07.932Z,18.50
2022-08-18T00:17:12.188Z,16.98
2022-08-18T00:18:18.223Z,18.13
2022-08-18T00:19:45.746Z,18.17
2022-08-18T00:20:49.262Z,20.17
2022-08-18T00:21:53.264Z,18.00
2022-08-18T00:22:59.069Z,29.20
2022-08-18T00:24:05.768Z,16.75
2022-08-18T00:25:12.769Z,17.48
2022-08-18T00:26:16.487Z,19.70
2022-08-18T00:27:28.573Z,16.27
2022-08-18T00:28:32.654Z,15.65
2022-08-18T00:29:37.766Z,15.38
2022-08-18T00:30:41.972Z,15.43
2022-08-18T00:31:47.332Z,14.90
2022-08-18T00:32:53.605Z,14.63
2022-08-18T00:33:59.268Z,15.27
2022-08-18T00:35:08.128Z,14.13
2022-08-18T00:36:14.170Z,14.15
2022-08-18T00:37:18.225Z,14.05
2022-08-18T00:38:24.466Z,15.00
2022-08-18T00:39:35.041Z,15.70
2022-08-18T00:40:46.182Z,17.23
2022-08-18T00:41:50.368Z,19.35
2022-08-18T00:42:57.258Z,26.02
2022-08-18T00:44:01.673Z,16.77
2022-08-18T00:45:08.598Z,19.25
2022-08-18T00:46:16.692Z,17.33
2022-08-18T00:47:41.932Z,19.17
2022-08-18T00:48:49.385Z,16.15
2022-08-18T00:49:54.526Z,14.15
2022-08-18T00:51:01.267Z,21.83
2022-08-18T00:52:06.376Z,21.05
2022-08-18T00:53:19.019Z,14.65
2022-08-18T00:54:26.190Z,16.55
2022-08-18T00:55:34.793Z,15.30
2022-08-18T00:56:43.194Z,14.68
2022-08-18T00:57:49.680Z,16.08
2022-08-18T00:58:58.237Z,15.73
2022-08-18T01:00:12.152Z,18.20
2022-08-18T01:01:33.683Z,18.88
2022-08-18T01:02:41.119Z,18.48
2022-08-18T01:03:53.340Z,19.75
2022-08-18T01:05:03.107Z,18.40
2022-08-18T01:06:11.935Z,19.20
2022-08-18T01:07:20.784Z,20.80
2022-08-18T01:08:28.490Z,17.13
2022-08-18T01:09:34.361Z,19.48
2022-08-18T01:10:42.627Z,22.00
2022-08-18T01:11:47.861Z,81.47
2022-08-18T01:12:56.706Z,25.67
2022-08-18T01:14:01.280Z,58.53
2022-08-18T01:15:07.896Z,67.32
2022-08-18T01:16:56.930Z,24.65
2022-08-18T01:18:22.780Z,21.08
2022-08-18T01:19:55.174Z,18.52
2022-08-18T01:21:26.969Z,17.02
2022-08-18T01:22:35.762Z,30.02
2022-08-18T01:23:41.658Z,30.95
2022-08-18T01:25:03.890Z,21.42
2022-08-18T01:26:10.017Z,17.50
2022-08-18T01:27:18.423Z,15.00
2022-08-18T01:28:24.788Z,14.40
2022-08-18T01:29:30.398Z,23.25
2022-08-18T01:30:47.493Z,26.42
2022-08-18T01:31:56.689Z,19.15
2022-08-18T01:33:03.920Z,17.88
2022-08-18T01:34:10.418Z,16.35
2022-08-18T01:35:17.644Z,18.88
2022-08-18T01:36:23.482Z,17.98
2022-08-18T01:37:29.079Z,16.75
2022-08-18T01:38:33.258Z,16.05
2022-08-18T01:41:22.377Z,14.02
2022-08-18T01:41:26.676Z,17.38
2022-08-18T01:42:29.450Z,78.05
2022-08-18T01:43:35.327Z,43.08
2022-08-18T01:44:41.990Z,26.77
2022-08-18T01:45:47.900Z,15.48
2022-08-18T01:46:53.944Z,13.68
2022-08-18T01:48:00.081Z,14.20
2022-08-18T01:49:04.497Z,14.50
2022-08-18T01:50:11.413Z,14.07
2022-08-18T01:51:16.286Z,15.27
2022-08-18T01:52:23.258Z,17.48
2022-08-18T01:53:27.667Z,17.65
2022-08-18T01:54:33.143Z,18.33
2022-08-18T01:55:41.425Z,19.23
2022-08-18T01:56:48.816Z,16.83
2022-08-18T01:57:53.114Z,18.63
2022-08-18T01:58:58.696Z,15.23
2022-08-18T02:00:03.151Z,15.85
2022-08-18T02:01:17.450Z,14.55
2022-08-18T02:02:25.154Z,15.70
2022-08-18T02:03:32.899Z,65.70
2022-08-18T02:04:37.734Z,13.93
2022-08-18T02:05:46.369Z,13.43
2022-08-18T02:06:51.923Z,17.90
2022-08-18T02:07:57.413Z,12.15
2022-08-18T02:09:01.579Z,14.18
2022-08-18T02:10:08.038Z,15.57
2022-08-18T02:11:17.831Z,15.05
2022-08-18T02:12:24.365Z,16.27
2022-08-18T02:13:28.771Z,15.45
2022-08-18T02:14:33.831Z,16.30
2022-08-18T02:15:37.566Z,16.70
2022-08-18T02:16:46.768Z,16.42
2022-08-18T02:17:50.958Z,21.48
2022-08-18T02:18:56.767Z,16.63
2022-08-18T02:20:00.937Z,12.65
2022-08-18T02:21:11.997Z,15.65
2022-08-18T02:22:20.306Z,12.25
2022-08-18T02:23:26.768Z,43.53
2022-08-18T02:24:31.789Z,55.05
2022-08-18T02:25:36.791Z,60.90
2022-08-18T02:26:43.961Z,22.27
2022-08-18T02:27:49.240Z,28.15
2022-08-18T02:28:53.845Z,51.80
2022-08-18T02:30:02.993Z,21.88
2022-08-18T02:31:08.640Z,40.95
2022-08-18T02:32:16.720Z,17.88
2022-08-18T02:33:20.486Z,16.05
2022-08-18T02:34:25.971Z,16.17
2022-08-18T02:35:30.489Z,19.35
2022-08-18T02:36:35.724Z,18.65
2022-08-18T02:37:42.262Z,16.27
2022-08-18T02:39:00.225Z,17.73
2022-08-18T02:40:05.227Z,17.55
2022-08-18T02:41:11.869Z,18.75
2022-08-18T02:42:16.869Z,19.08
2022-08-18T02:43:21.352Z,17.08
2022-08-18T02:44:24.714Z,18.20
2022-08-18T02:45:29.242Z,18.92
2022-08-18T02:46:32.596Z,17.38
2022-08-18T02:47:37.043Z,90.60
2022-08-18T02:48:40.389Z,78.38
2022-08-18T02:49:44.710Z,16.58
2022-08-18T02:50:48.131Z,32.45
2022-08-18T02:51:53.022Z,12.70
2022-08-18T02:52:56.405Z,14.38
2022-08-18T02:54:00.934Z,20.38
2022-08-18T02:55:04.907Z,16.33
2022-08-18T02:56:40.263Z,33.28
2022-08-18T02:57:49.708Z,15.73
2022-08-18T02:58:54.961Z,16.42
2022-08-18T02:59:59.771Z,22.35
2022-08-18T03:01:03.074Z,14.63
2022-08-18T03:02:08.603Z,15.88
2022-08-18T03:03:11.968Z,16.52
2022-08-18T03:04:22.925Z,16.42
2022-08-18T03:05:30.424Z,18.27
2022-08-18T03:06:38.324Z,16.92
2022-08-18T03:07:41.602Z,17.30
2022-08-18T03:08:49.079Z,18.20
2022-08-18T03:09:53.312Z,17.58
2022-08-18T03:10:56.507Z,17.40
2022-08-18T03:12:01.274Z,18.70
2022-08-18T03:13:06.278Z,17.65
2022-08-18T03:14:11.430Z,18.08
2022-08-18T03:15:15.009Z,16.75
2022-08-18T03:16:19.853Z,17.55
2022-08-18T03:17:23.324Z,17.27
2022-08-18T03:18:27.651Z,17.88
2022-08-18T03:19:30.948Z,17.95
2022-08-18T03:20:35.410Z,17.63
2022-08-18T03:21:38.862Z,18.42
2022-08-18T03:22:44.109Z,17.40
2022-08-18T03:24:00.907Z,17.77
2022-08-18T03:25:06.767Z,17.40
2022-08-18T03:26:11.951Z,20.08
2022-08-18T03:27:16.179Z,17.80
2022-08-18T03:28:21.074Z,32.15
2022-08-18T03:29:29.533Z,76.15
2022-08-18T03:30:35.410Z,58.58
2022-08-18T03:31:40.508Z,38.92
2022-08-18T03:32:45.659Z,38.47
2022-08-18T03:33:50.501Z,18.45
2022-08-18T03:34:53.719Z,18.38
2022-08-18T03:35:57.991Z,17.20
2022-08-18T03:37:02.329Z,19.48
2022-08-18T03:38:06.159Z,26.15
2022-08-18T03:39:12.354Z,22.05
2022-08-18T03:40:15.587Z,20.13
2022-08-18T03:41:44.495Z,26.35
2022-08-18T03:42:47.568Z,26.75
2022-08-18T03:43:52.851Z,20.63
2022-08-18T03:44:57.178Z,24.10
2022-08-18T03:46:01.879Z,21.92
2022-08-18T03:47:09.493Z,21.80
2022-08-18T03:48:12.783Z,22.20
2022-08-18T03:49:18.321Z,21.23
2022-08-18T03:50:26.083Z,21.83
2022-08-18T03:51:32.390Z,24.52
2022-08-18T03:52:41.644Z,26.92
2022-08-18T03:53:45.480Z,22.30
2022-08-18T03:54:49.623Z,44.00
2022-08-18T03:55:52.631Z,42.25
2022-08-18T03:56:56.819Z,66.35
2022-08-18T03:58:03.032Z,56.53
2022-08-18T03:59:10.101Z,111.85
2022-08-18T04:00:13.558Z,55.45
2022-08-18T04:01:26.341Z,22.58
2022-08-18T04:02:30.525Z,21.00
2022-08-18T04:03:34.752Z,21.40
2022-08-18T04:04:42.910Z,20.58
2022-08-18T04:05:47.889Z,21.48
2022-08-18T04:06:55.611Z,21.88
2022-08-18T04:07:59.170Z,24.58
2022-08-18T04:09:06.372Z,21.35
2022-08-18T04:10:17.027Z,24.08
2022-08-18T04:11:23.970Z,27.48
2022-08-18T04:12:27.230Z,22.35
2022-08-18T04:13:36.445Z,24.27
2022-08-18T04:14:42.369Z,21.05
2022-08-18T04:15:46.459Z,23.33
2022-08-18T04:16:49.850Z,21.50
2022-08-18T04:18:06.012Z,25.17
2022-08-18T04:19:09.895Z,22.17
2022-08-18T04:20:14.978Z,24.05
2022-08-18T04:21:18.705Z,31.42
2022-08-18T04:22:22.961Z,29.40
2022-08-18T04:23:26.229Z,29.45
2022-08-18T04:24:33.017Z,31.85
2022-08-18T04:25:36.534Z,28.65
2022-08-18T04:26:43.401Z,21.80
2022-08-18T04:27:46.600Z,24.13
2022-08-18T04:28:50.770Z,28.33
2022-08-18T04:29:56.994Z,22.10
2022-08-18T04:31:09.103Z,29.70
2022-08-18T04:32:13.627Z,25.42
2022-08-18T04:33:17.861Z,21.40
2022-08-18T04:34:23.020Z,24.90
2022-08-18T04:35:29.341Z,25.58
2022-08-18T04:36:34.768Z,29.70
2022-08-18T04:37:50.123Z,29.67
2022-08-18T04:38:54.245Z,27.65
2022-08-18T04:40:01.115Z,25.70
2022-08-18T04:41:04.699Z,25.70
2022-08-18T04:42:09.148Z,25.55
2022-08-18T04:43:15.480Z,25.52
2022-08-18T04:44:20.487Z,23.90
2022-08-18T04:45:25.208Z,27.85
2022-08-18T04:46:30.668Z,25.55
2022-08-18T04:47:34.826Z,23.98
2022-08-18T04:48:40.889Z,24.42
2022-08-18T04:49:44.857Z,23.17
2022-08-18T04:50:49.272Z,22.65
2022-08-18T04:52:34.496Z,25.05
2022-08-18T04:53:47.208Z,26.45
2022-08-18T04:54:51.591Z,24.42
2022-08-18T04:55:56.370Z,25.75
2022-08-18T04:57:00.751Z,25.40
2022-08-18T04:58:04.998Z,27.05
2022-08-18T04:59:12.847Z,25.08
2022-08-18T05:00:17.450Z,26.80
2022-08-18T05:01:23.966Z,25.52
2022-08-18T05:02:28.326Z,25.92
2022-08-18T05:03:31.610Z,24.77
2022-08-18T05:04:36.793Z,23.48
2022-08-18T05:05:40.203Z,24.70
2022-08-18T05:06:45.809Z,25.30
2022-08-18T05:07:49.331Z,25.10
2022-08-18T05:08:54.628Z,23.13
2022-08-18T05:09:58.030Z,22.30
2022-08-18T05:11:04.316Z,23.27
2022-08-18T05:12:09.141Z,24.45
2022-08-18T05:13:16.921Z,24.60
2022-08-18T05:14:20.550Z,22.63
2022-08-18T05:15:28.502Z,22.25
2022-08-18T05:16:36.181Z,25.45
2022-08-18T05:17:50.855Z,22.50
2022-08-18T05:18:55.034Z,24.83
2022-08-18T05:20:01.898Z,23.70
2022-08-18T05:21:14.493Z,27.45
2022-08-18T05:22:28.734Z,26.52
2022-08-18T05:23:36.447Z,27.08
2022-08-18T05:24:40.141Z,26.02
2022-08-18T05:25:44.390Z,25.60
2022-08-18T05:26:49.043Z,24.50
2022-08-18T05:27:56.348Z,24.10
2022-08-18T05:29:17.798Z,24.13
2022-08-18T05:30:23.621Z,22.23
2022-08-18T05:31:29.918Z,24.27
2022-08-18T05:32:46.866Z,24.93
2022-08-18T05:33:55.989Z,24.17
2022-08-18T05:34:59.978Z,21.75
2022-08-18T05:36:06.239Z,21.63
2022-08-18T05:37:20.708Z,19.53
2022-08-18T05:38:35.017Z,18.23
2022-08-18T05:39:44.602Z,16.13
2022-08-18T05:41:01.021Z,18.80
2022-08-18T05:42:20.327Z,13.60
2022-08-18T05:43:24.868Z,16.27
2022-08-18T05:44:29.852Z,14.60
2022-08-18T05:45:35.051Z,13.60
2022-08-18T05:46:45.716Z,14.67
2022-08-18T05:47:50.923Z,16.87
2022-08-18T05:48:55.568Z,12.13
2022-08-18T05:50:04.940Z,16.47
2022-08-18T05:51:19.039Z,14.60
2022-08-18T05:52:26.373Z,13.13
2022-08-18T05:53:44.730Z,13.70
2022-08-18T05:55:08.366Z,14.07
2022-08-18T05:56:31.019Z,11.03
2022-08-18T05:57:40.871Z,13.73
2022-08-18T05:58:48.811Z,13.37
2022-08-18T05:59:54.516Z,13.70
2022-08-18T06:01:01.812Z,14.10
2022-08-18T06:02:10.488Z,12.47
2022-08-18T06:03:21.064Z,12.40
2022-08-18T06:04:35.096Z,11.70
2022-08-18T06:05:45.033Z,11.53
2022-08-18T06:06:51.352Z,14.87
2022-08-18T06:07:57.550Z,18.80
2022-08-18T06:09:06.273Z,19.43
2022-08-18T06:10:11.938Z,11.77
2022-08-18T06:11:17.415Z,12.77
2022-08-18T06:12:29.952Z,13.73
2022-08-18T06:13:39.511Z,13.30
2022-08-18T06:14:44.252Z,13.43
2022-08-18T06:15:54.627Z,14.33
2022-08-18T06:17:03.798Z,12.37
2022-08-18T06:18:21.358Z,11.97
2022-08-18T06:19:36.541Z,10.63
2022-08-18T06:20:50.890Z,12.70
2022-08-18T06:22:02.768Z,11.90
2022-08-18T06:23:18.970Z,13.07
2022-08-18T06:24:30.104Z,11.50
2022-08-18T06:25:38.560Z,9.93
2022-08-18T06:26:49.017Z,12.27
2022-08-18T06:27:56.866Z,15.43
2022-08-18T06:29:10.080Z,11.80
2022-08-18T06:30:17.958Z,12.37
2022-08-18T06:31:29.484Z,10.97
2022-08-18T06:32:49.198Z,9.63
2022-08-18T06:34:06.022Z,12.93
2022-08-18T06:35:21.192Z,13.00
2022-08-18T06:36:33.447Z,10.93
2022-08-18T06:38:12.829Z,15.73
2022-08-18T06:39:22.671Z,10.23
2022-08-18T06:40:25.854Z,9.77
2022-08-18T06:41:41.618Z,11.33
2022-08-18T06:42:48.789Z,10.73
2022-08-18T06:44:00.490Z,12.17
2022-08-18T06:45:08.661Z,11.03
2022-08-18T06:46:18.667Z,11.63
2022-08-18T06:47:30.379Z,11.37
2022-08-18T06:48:40.509Z,10.47
2022-08-18T06:49:51.590Z,9.90
2022-08-18T06:51:01.120Z,10.50
2022-08-18T06:52:23.784Z,10.77
2022-08-18T06:53:51.849Z,18.17
2022-08-18T06:54:58.248Z,9.13
2022-08-18T06:56:26.224Z,12.40
2022-08-18T06:57:34.901Z,11.50
2022-08-18T06:58:38.250Z,12.33
2022-08-18T06:59:42.652Z,8.93
2022-08-18T07:00:56.685Z,8.77
2022-08-18T07:02:03.110Z,12.63
2022-08-18T07:03:08.319Z,8.70
2022-08-18T07:04:32.616Z,11.63
2022-08-18T07:05:39.299Z,10.03
2022-08-18T07:06:42.359Z,8.70
2022-08-18T07:07:46.896Z,10.10
2022-08-18T07:08:51.744Z,8.10
2022-08-18T07:09:56.995Z,11.43
2022-08-18T07:11:14.346Z,7.67
2022-08-18T07:12:26.717Z,10.30
2022-08-18T07:13:40.680Z,13.20
2022-08-18T07:14:49.198Z,11.10
2022-08-18T07:15:55.393Z,10.30
2022-08-18T07:17:09.019Z,10.10
2022-08-18T07:18:14.942Z,10.87
2022-08-18T07:19:20.968Z,9.97
2022-08-18T07:20:26.711Z,8.60
2022-08-18T07:21:34.284Z,8.47
2022-08-18T07:22:56.316Z,7.60
2022-08-18T07:24:23.247Z,15.57
2022-08-18T07:25:28.069Z,9.60
2022-08-18T07:26:47.871Z,9.60
2022-08-18T07:27:56.514Z,6.93
2022-08-18T07:29:14.892Z,7.80
2022-08-18T07:30:30.719Z,10.63
2022-08-18T07:31:39.756Z,9.97
2022-08-18T07:32:47.461Z,10.27
2022-08-18T07:33:56.483Z,6.67
2022-08-18T07:35:03.830Z,7.87
2022-08-18T07:36:10.109Z,12.07
2022-08-18T07:37:22.845Z,7.65
2022-08-18T07:38:42.523Z,10.13
2022-08-18T07:39:51.241Z,7.93
2022-08-18T07:40:58.454Z,12.85
2022-08-18T07:42:04.736Z,10.43
2022-08-18T07:43:16.778Z,6.50
2022-08-18T07:44:24.836Z,7.13
2022-08-18T07:45:51.609Z,6.73
2022-08-18T07:46:59.889Z,7.53
2022-08-18T07:48:27.374Z,6.53
2022-08-18T07:49:36.080Z,6.70
2022-08-18T07:50:58.238Z,8.67
2022-08-18T07:52:16.383Z,7.38
2022-08-18T07:53:42.084Z,11.52
2022-08-18T07:54:54.606Z,10.90
2022-08-18T07:56:03.352Z,8.68
2022-08-18T07:57:19.632Z,10.85
2022-08-18T07:58:28.922Z,9.90
2022-08-18T07:59:38.099Z,9.50
2022-08-18T08:01:05.234Z,8.95
2022-08-18T08:02:22.546Z,7.40
2022-08-18T08:03:32.498Z,9.20
2022-08-18T08:04:41.135Z,9.80
2022-08-18T08:05:51.765Z,8.20
2022-08-18T08:07:23.526Z,7.20
2022-08-18T08:08:32.608Z,11.07
2022-08-18T08:09:51.750Z,7.75
2022-08-18T08:11:09.508Z,7.38
2022-08-18T08:12:18.617Z,8.05
2022-08-18T08:13:51.326Z,7.28
2022-08-18T08:14:56.123Z,8.35
2022-08-18T08:16:04.847Z,10.43
2022-08-18T08:17:17.587Z,8.27
2022-08-18T08:18:31.758Z,9.57
2022-08-18T08:20:08.695Z,7.72
2022-08-18T08:21:17.807Z,8.38
2022-08-18T08:22:24.826Z,8.18
2022-08-18T08:23:32.435Z,7.15
2022-08-18T08:24:43.091Z,6.85
2022-08-18T08:25:57.200Z,9.25
2022-08-18T08:27:07.034Z,9.15
2022-08-18T08:28:22.113Z,10.07
2022-08-18T08:29:38.282Z,6.45
2022-08-18T08:30:48.577Z,6.97
2022-08-18T08:31:58.579Z,10.52
2022-08-18T08:33:10.076Z,6.97
2022-08-18T08:34:17.593Z,9.05
2022-08-18T08:35:48.561Z,6.70
2022-08-18T08:36:50.269Z,6.93
2022-08-18T08:38:08.230Z,6.88
2022-08-18T08:39:27.002Z,7.45
2022-08-18T08:40:38.488Z,7.05
2022-08-18T08:41:53.416Z,7.60
2022-08-18T08:43:20.708Z,7.38
2022-08-18T08:44:30.962Z,7.20
2022-08-18T08:45:38.267Z,7.45
2022-08-18T08:46:46.749Z,7.40
2022-08-18T08:48:09.412Z,7.10
2022-08-18T08:49:23.461Z,8.63
2022-08-18T08:50:29.901Z,6.70
2022-08-18T08:51:37.953Z,7.15
2022-08-18T08:52:45.495Z,11.27
2022-08-18T08:53:54.025Z,11.73
2022-08-18T08:55:02.914Z,11.25
2022-08-18T08:56:13.007Z,9.68
2022-08-18T08:57:18.248Z,8.02
2022-08-18T08:58:31.578Z,7.20
2022-08-18T08:59:39.808Z,6.63
2022-08-18T09:00:44.760Z,8.40
2022-08-18T09:01:55.444Z,7.43
2022-08-18T09:03:13.633Z,9.25
2022-08-18T09:04:24.218Z,9.00
2022-08-18T09:05:30.711Z,7.80
2022-08-18T09:06:44.419Z,8.68
2022-08-18T09:08:03.680Z,7.03
2022-08-18T09:09:19.368Z,7.53
2022-08-18T09:10:44.098Z,7.18
2022-08-18T09:12:12.170Z,8.30
2022-08-18T09:13:35.169Z,8.32
2022-08-18T09:15:11.568Z,8.38
2022-08-18T09:16:22.758Z,7.65
2022-08-18T09:17:50.897Z,6.47
2022-08-18T09:19:26.401Z,7.20
2022-08-18T09:20:48.607Z,7.55
2022-08-18T09:21:59.510Z,6.78
2022-08-18T09:23:06.749Z,9.30
2022-08-18T09:24:23.161Z,7.47
2022-08-18T09:25:48.133Z,8.93
2022-08-18T09:27:16.532Z,8.77
2022-08-18T09:28:21.767Z,7.53
2022-08-18T09:29:29.482Z,6.78
2022-08-18T09:30:47.445Z,9.00
2022-08-18T09:32:32.971Z,10.05
2022-08-18T09:33:57.613Z,6.78
2022-08-18T09:35:44.898Z,7.15
2022-08-18T09:37:03.852Z,6.43
2022-08-18T09:38:29.963Z,11.15
2022-08-18T09:39:55.114Z,6.80
2022-08-18T09:41:34.440Z,7.80
2022-08-18T09:44:12.083Z,8.50
2022-08-18T09:46:00.109Z,8.13
2022-08-18T09:47:04.360Z,9.02
2022-08-18T09:48:32.535Z,7.35
2022-08-18T09:49:51.108Z,8.32
2022-08-18T09:50:37.004Z,8.07
2022-08-18T09:51:01.652Z,6.95
2022-08-18T09:52:59.163Z,8.48
2022-08-18T09:54:21.137Z,7.43
2022-08-18T09:56:00.553Z,7.30
2022-08-18T09:57:24.759Z,9.20
2022-08-18T09:59:02.879Z,8.60
2022-08-18T10:00:29.497Z,9.55
2022-08-18T10:01:40.589Z,7.13
2022-08-18T10:03:14.580Z,11.88
2022-08-18T10:04:34.391Z,7.45
2022-08-18T10:05:37.582Z,10.20
2022-08-18T10:06:42.982Z,7.18
2022-08-18T10:07:53.753Z,8.13
2022-08-18T10:09:36.417Z,7.30
2022-08-18T10:11:00.464Z,7.55
2022-08-18T10:12:20.791Z,14.88
2022-08-18T10:13:29.900Z,7.18
2022-08-18T10:15:04.432Z,7.35
2022-08-18T10:16:17.310Z,8.77
2022-08-18T10:17:32.870Z,11.57
2022-08-18T10:18:53.037Z,9.02
2022-08-18T10:20:01.278Z,9.73
2022-08-18T10:21:12.909Z,7.65
2022-08-18T10:22:37.030Z,9.48
2022-08-18T10:24:14.704Z,7.53
2022-08-18T10:25:39.740Z,8.48
2022-08-18T10:27:11.069Z,10.32
2022-08-18T10:28:50.171Z,7.97
2022-08-18T10:29:56.398Z,10.45
2022-08-18T10:31:10.115Z,11.82
2022-08-18T10:32:38.570Z,7.93
2022-08-18T10:34:16.895Z,8.23
2022-08-18T10:35:57.678Z,9.30
2022-08-18T10:37:06.355Z,7.70
2022-08-18T10:38:13.239Z,7.82
2022-08-18T10:39:23.554Z,9.55
2022-08-18T10:40:27.203Z,7.57
2022-08-18T10:41:33.419Z,7.55
2022-08-18T10:42:42.108Z,8.38
2022-08-18T10:43:55.804Z,10.35
2022-08-18T10:45:09.651Z,8.82
2022-08-18T10:46:24.660Z,9.77
2022-08-18T10:47:33.462Z,7.75
2022-08-18T10:48:40.254Z,8.35
2022-08-18T10:49:50.640Z,7.93
2022-08-18T10:50:58.878Z,8.57
2022-08-18T10:52:18.096Z,20.15
2022-08-18T10:53:44.466Z,8.20
2022-08-18T10:55:23.271Z,7.68
2022-08-18T10:56:33.769Z,7.55
2022-08-18T10:57:47.063Z,9.38
2022-08-18T10:59:02.163Z,7.20
2022-08-18T11:00:10.821Z,9.85
2022-08-18T11:01:32.919Z,9.30
2022-08-18T11:03:39.913Z,7.05
2022-08-18T11:04:38.792Z,12.60
2022-08-18T11:05:43.157Z,9.45
2022-08-18T11:06:50.819Z,10.60
2022-08-18T11:08:00.811Z,7.18
2022-08-18T11:09:04.150Z,9.85
2022-08-18T11:10:58.078Z,8.38
2022-08-18T11:11:52.997Z,8.73
2022-08-18T11:13:09.831Z,14.68
2022-08-18T11:14:35.793Z,11.43
2022-08-18T11:15:50.614Z,9.30
2022-08-18T11:17:02.668Z,8.10
2022-08-18T11:18:18.620Z,7.95
2022-08-18T11:19:25.072Z,16.63
2022-08-18T11:20:31.679Z,8.30
2022-08-18T11:21:41.962Z,9.13
2022-08-18T11:22:55.527Z,9.43
2022-08-18T11:24:07.232Z,8.85
2022-08-18T11:25:24.081Z,8.57
2022-08-18T11:26:31.381Z,7.82
2022-08-18T11:27:36.982Z,8.50
2022-08-18T11:28:45.349Z,14.20
2022-08-18T11:29:50.158Z,7.10
2022-08-18T11:30:56.377Z,9.18
2022-08-18T11:32:10.994Z,12.18
2022-08-18T11:34:45.540Z,9.60
2022-08-18T11:35:58.779Z,8.68
2022-08-18T11:37:03.997Z,7.28
2022-08-18T11:38:23.285Z,9.75
2022-08-18T11:39:37.612Z,14.80
2022-08-18T11:42:15.944Z,13.30
2022-08-18T11:43:29.752Z,7.82
2022-08-18T11:44:42.483Z,8.48
2022-08-18T11:45:54.330Z,10.18
2022-08-18T11:47:14.770Z,8.40
2022-08-18T11:48:21.487Z,10.50
2022-08-18T11:49:34.079Z,9.32
2022-08-18T11:50:54.322Z,10.68
2022-08-18T11:52:02.356Z,11.02
2022-08-18T11:53:19.129Z,7.47
2022-08-18T11:54:50.666Z,11.80
2022-08-18T11:56:13.529Z,7.20
2022-08-18T11:57:46.527Z,7.25
2022-08-18T11:58:55.520Z,7.57
2022-08-18T12:01:41.925Z,7.80
2022-08-18T12:02:47.135Z,7.00
2022-08-18T12:03:51.524Z,7.40
2022-08-18T12:05:03.062Z,7.55
2022-08-18T12:06:20.303Z,11.13
2022-08-18T12:07:30.797Z,6.70
2022-08-18T12:10:26.260Z,7.38
2022-08-18T12:11:34.418Z,9.70
2022-08-18T12:12:46.707Z,7.50
2022-08-18T12:14:31.245Z,9.55
2022-08-18T12:15:46.689Z,8.57
2022-08-18T12:16:53.942Z,10.45
2022-08-18T12:17:58.888Z,7.68
2022-08-18T12:19:05.415Z,6.68
2022-08-18T12:20:16.430Z,7.65
2022-08-18T12:21:19.469Z,6.22
2022-08-18T12:22:28.081Z,7.38
2022-08-18T12:23:38.827Z,6.97
2022-08-18T12:24:54.962Z,6.57
2022-08-18T12:25:59.590Z,6.40
2022-08-18T12:28:28.960Z,8.57
2022-08-18T12:29:43.387Z,8.93
2022-08-18T12:30:48.518Z,7.80
2022-08-18T12:32:00.677Z,6.75
2022-08-18T12:33:12.059Z,7.72
2022-08-18T12:34:17.991Z,6.93
2022-08-18T12:35:28.382Z,7.88
2022-08-18T12:36:32.784Z,7.30
2022-08-18T12:39:02.770Z,8.00
2022-08-18T12:40:10.369Z,8.57
2022-08-18T12:41:18.611Z,6.82
2022-08-18T12:42:27.397Z,6.53
2022-08-18T12:43:32.116Z,6.18
2022-08-18T12:44:35.431Z,7.03
2022-08-18T12:45:40.531Z,6.95
2022-08-18T12:46:58.265Z,7.63
2022-08-18T12:49:29.668Z,7.18
2022-08-18T12:50:36.151Z,7.47
2022-08-18T12:51:50.335Z,6.82
2022-08-18T12:52:54.431Z,7.20
2022-08-18T12:54:00.432Z,8.35
2022-08-18T12:55:05.454Z,11.50
2022-08-18T12:56:13.737Z,11.60
2022-08-18T12:58:47.740Z,6.53
2022-08-18T12:59:52.436Z,6.05
2022-08-18T13:01:00.898Z,7.25
2022-08-18T13:02:07.586Z,7.75
2022-08-18T13:03:13.813Z,6.50
2022-08-18T13:04:18.514Z,6.88
2022-08-18T13:05:27.603Z,7.97
2022-08-18T13:06:34.222Z,8.50
2022-08-18T13:07:38.708Z,6.05
2022-08-18T13:08:48.044Z,6.63
2022-08-18T13:09:54.658Z,7.63
2022-08-18T13:11:15.194Z,8.27
2022-08-18T13:12:27.377Z,7.07
2022-08-18T13:13:31.238Z,6.47
2022-08-18T13:14:35.941Z,6.45
2022-08-18T13:15:39.672Z,7.10
2022-08-18T13:16:58.750Z,6.35
2022-08-18T13:18:03.084Z,6.20
2022-08-18T13:19:36.606Z,7.47
2022-08-18T13:20:41.248Z,8.82
2022-08-18T13:21:49.564Z,6.68
2022-08-18T13:22:52.800Z,7.93
2022-08-18T13:23:58.028Z,6.70
2022-08-18T13:25:05.470Z,8.52
2022-08-18T13:26:11.294Z,7.93
2022-08-18T13:27:18.596Z,6.97
2022-08-18T13:28:36.230Z,10.10
2022-08-18T13:29:58.627Z,6.45
2022-08-18T13:31:03.461Z,6.32
2022-08-18T13:32:09.771Z,6.65
2022-08-18T13:33:35.171Z,8.85
2022-08-18T13:34:41.118Z,7.03
2022-08-18T13:35:54.150Z,6.57
2022-08-18T13:36:58.660Z,6.70
2022-08-18T13:38:06.555Z,10.32
2022-08-18T13:39:22.512Z,7.65
2022-08-18T13:40:29.488Z,6.70
2022-08-18T13:41:33.556Z,6.50
2022-08-18T13:42:50.815Z,9.23
2022-08-18T13:43:54.436Z,6.75
2022-08-18T13:45:25.027Z,7.82
2022-08-18T13:46:30.001Z,6.65
2022-08-18T13:47:38.321Z,9.25
2022-08-18T13:48:42.909Z,6.75
2022-08-18T13:49:58.165Z,9.98
2022-08-18T13:51:05.625Z,6.47
2022-08-18T13:52:33.174Z,7.22
2022-08-18T13:53:50.395Z,6.88
2022-08-18T13:54:54.797Z,6.43
2022-08-18T13:56:00.183Z,10.15
2022-08-18T13:57:03.649Z,6.20
2022-08-18T13:58:17.582Z,9.02
2022-08-18T13:59:27.322Z,6.40
2022-08-18T14:00:31.419Z,6.80
2022-08-18T14:01:44.491Z,8.00
2022-08-18T14:02:57.434Z,8.15
2022-08-18T14:04:01.471Z,6.00
2022-08-18T14:05:07.730Z,8.70
2022-08-18T14:06:13.330Z,6.22
2022-08-18T14:07:27.380Z,5.72
2022-08-18T14:08:33.763Z,6.82
2022-08-18T14:09:38.566Z,6.18
2022-08-18T14:10:41.790Z,8.38
2022-08-18T14:11:51.105Z,6.07
2022-08-18T14:12:57.751Z,6.75
2022-08-18T14:14:01.817Z,6.25
2022-08-18T14:15:08.909Z,6.00
2022-08-18T14:16:18.611Z,6.80
2022-08-18T14:17:24.580Z,9.75
2022-08-18T14:18:31.174Z,7.78
2022-08-18T14:19:52.502Z,8.68
2022-08-18T14:21:14.858Z,7.30
2022-08-18T14:22:38.448Z,6.18
2022-08-18T14:24:02.944Z,5.93
2022-08-18T14:25:25.266Z,6.38
2022-08-18T14:26:50.031Z,6.40
2022-08-18T14:27:56.958Z,8.25
2022-08-18T14:29:01.391Z,6.28
2022-08-18T14:30:13.804Z,6.60
2022-08-18T14:31:20.787Z,7.97
2022-08-18T14:32:30.054Z,6.03
2022-08-18T14:33:51.659Z,6.22
2022-08-18T14:35:00.535Z,9.55
2022-08-18T14:36:09.489Z,6.50
2022-08-18T14:37:13.342Z,6.03
2022-08-18T14:38:19.099Z,8.70
2022-08-18T14:39:22.158Z,7.50
2022-08-18T14:40:28.053Z,7.10
2022-08-18T14:41:36.246Z,5.85
2022-08-18T14:42:54.063Z,5.93
2022-08-18T14:44:12.290Z,6.40
2022-08-18T14:45:27.720Z,6.95
2022-08-18T14:46:38.388Z,5.70
2022-08-18T14:47:44.577Z,6.68
2022-08-18T14:48:48.801Z,8.07
2022-08-18T14:49:51.928Z,6.30
2022-08-18T14:50:58.948Z,7.22
2022-08-18T14:52:03.675Z,5.88
2022-08-18T14:53:15.145Z,6.18
2022-08-18T14:54:20.033Z,6.28
2022-08-18T14:55:24.434Z,6.90
2022-08-18T14:56:29.857Z,7.22
2022-08-18T14:57:37.858Z,6.95
2022-08-18T14:58:41.230Z,7.57
2022-08-18T14:59:46.954Z,6.40
2022-08-18T15:00:54.228Z,9.55
2022-08-18T15:02:00.909Z,8.57
2022-08-18T15:03:07.716Z,6.20
2022-08-18T15:04:18.327Z,7.78
2022-08-18T15:05:24.367Z,6.53
2022-08-18T15:06:27.889Z,8.30
2022-08-18T15:07:32.719Z,7.68
2022-08-18T15:08:38.936Z,8.40
2022-08-18T15:09:47.239Z,6.68
2022-08-18T15:10:53.007Z,6.65
2022-08-18T15:11:56.766Z,6.28
2022-08-18T15:13:01.983Z,6.57
2022-08-18T15:14:05.300Z,6.38
2022-08-18T15:15:17.745Z,6.43
2022-08-18T15:16:22.721Z,8.07
2022-08-18T15:17:38.290Z,6.18
2022-08-18T15:18:42.742Z,6.38
2022-08-18T15:19:58.517Z,6.60
2022-08-18T15:21:35.047Z,10.52
2022-08-18T15:23:01.132Z,8.18
2022-08-18T15:24:26.268Z,8.50
2022-08-18T15:25:51.220Z,6.28
2022-08-18T15:26:58.054Z,8.55
2022-08-18T15:28:07.685Z,8.50
2022-08-18T15:29:27.837Z,6.30
2022-08-18T15:30:34.014Z,10.98
2022-08-18T15:31:57.720Z,5.90
2022-08-18T15:33:03.635Z,6.88
2022-08-18T15:34:06.831Z,7.53
2022-08-18T15:35:17.737Z,6.43
2022-08-18T15:36:29.186Z,6.72
2022-08-18T15:37:35.590Z,7.45
2022-08-18T15:38:40.592Z,7.20